Terminal Aerodrome Forecast
Issued by NWS

Home | Current Version | Previous Version | Text Only | Print | Product List | Glossary On
Versions: 1 2 3 4 5 6 7 8 9 10 11 12 13 14
000
FTAK31 PAJN 060700 AAA
TAFASI
TAF AMD
PASI 060726Z 0607/0706 32012KT P6SM SCT200
     FM061200 34006KT P6SM FEW002 BKN006
      TEMPO 0612/0616 6SM BR SCT002 OVC004
     FM061700 27008KT P6SM FEW150
     FM070200 27004KT P6SM BKN100=

USA.gov is the U.S. government's official web portal to all federal, state and local government web resources and services.